createdAt,value
2019-02-28T00:03:03.103Z,7.59
2019-02-28T00:08:05.220Z,7.52
2019-02-28T00:13:10.282Z,7.78
2019-02-28T00:18:15.198Z,7.75
2019-02-28T00:23:19.182Z,7.79
2019-02-28T00:28:23.064Z,7.65
2019-02-28T00:33:26.880Z,7.66
2019-02-28T00:38:29.659Z,7.37
2019-02-28T00:43:35.311Z,7.30
2019-02-28T00:48:37.453Z,7.13
2019-02-28T00:53:42.149Z,7.19
2019-02-28T00:58:45.524Z,7.18
2019-02-28T01:03:58.033Z,6.93
2019-02-28T01:08:58.904Z,6.97
2019-02-28T01:14:03.607Z,7.00
2019-02-28T01:19:10.148Z,6.81
2019-02-28T01:24:14.641Z,6.85
2019-02-28T01:29:19.439Z,6.76
2019-02-28T01:34:22.924Z,6.61
2019-02-28T01:39:30.704Z,6.52
2019-02-28T01:44:35.805Z,6.78
2019-02-28T01:49:40.815Z,6.51
2019-02-28T01:54:43.367Z,6.67
2019-02-28T01:59:48.264Z,6.78
2019-02-28T02:04:50.362Z,6.57
2019-02-28T02:09:52.758Z,6.51
2019-02-28T02:14:57.139Z,6.61
2019-02-28T02:20:01.327Z,6.30
2019-02-28T02:25:08.532Z,6.51
2019-02-28T02:30:15.752Z,6.11
2019-02-28T02:35:18.065Z,6.34
2019-02-28T02:40:23.243Z,6.09
2019-02-28T02:45:26.694Z,6.25
2019-02-28T02:50:35.925Z,6.21
2019-02-28T02:55:38.503Z,6.09
2019-02-28T03:00:49.473Z,6.00
2019-02-28T03:05:52.773Z,6.02
2019-02-28T03:10:55.974Z,5.90
2019-02-28T03:15:59.263Z,5.95
2019-02-28T03:21:02.067Z,6.02
2019-02-28T03:26:07.151Z,6.00
2019-02-28T03:31:14.420Z,5.89
2019-02-28T03:36:17.293Z,6.07
2019-02-28T03:41:19.308Z,5.77
2019-02-28T03:46:25.086Z,5.91
2019-02-28T03:51:32.010Z,5.94
2019-02-28T03:56:38.217Z,5.88
2019-02-28T04:01:45.383Z,5.78
2019-02-28T04:06:48.589Z,5.73
2019-02-28T04:11:53.417Z,5.64
2019-02-28T04:16:55.711Z,5.69
2019-02-28T04:21:57.709Z,5.67
2019-02-28T04:27:05.895Z,5.80
2019-02-28T04:32:05.813Z,5.80
2019-02-28T04:37:09.539Z,5.70
2019-02-28T04:42:13.034Z,5.90
2019-02-28T04:47:20.297Z,6.06
2019-02-28T04:52:22.373Z,5.89
2019-02-28T04:57:27.163Z,6.04
2019-02-28T05:02:29.253Z,6.10
2019-02-28T05:07:34.121Z,6.27
2019-02-28T05:12:39.497Z,6.15
2019-02-28T05:17:42.264Z,5.81
2019-02-28T05:22:44.360Z,6.02
2019-02-28T05:27:46.406Z,5.86
2019-02-28T05:32:51.065Z,5.94
2019-02-28T05:37:54.245Z,5.83
2019-02-28T05:42:58.281Z,5.79
2019-02-28T05:48:03.789Z,5.53
2019-02-28T05:53:06.240Z,5.68
2019-02-28T05:58:11.872Z,5.36
2019-02-28T06:03:17.775Z,5.41
2019-02-28T06:08:20.900Z,5.26
2019-02-28T06:13:23.274Z,5.40
2019-02-28T06:18:32.684Z,5.61
2019-02-28T06:23:31.179Z,5.62
2019-02-28T06:28:36.208Z,5.46
2019-02-28T06:33:38.251Z,5.56
2019-02-28T06:38:40.295Z,5.59
2019-02-28T06:43:44.595Z,5.77
2019-02-28T06:48:46.711Z,5.93
2019-02-28T06:53:48.798Z,6.09
2019-02-28T06:58:53.605Z,6.30
2019-02-28T07:03:55.775Z,6.33
2019-02-28T07:09:01.829Z,6.61
2019-02-28T07:14:03.715Z,6.64
2019-02-28T07:19:06.494Z,6.67
2019-02-28T07:24:12.389Z,6.73
2019-02-28T07:29:16.735Z,7.02
2019-02-28T07:34:23.852Z,7.17
2019-02-28T07:39:24.362Z,7.37
2019-02-28T07:44:26.584Z,7.41
2019-02-28T07:49:28.674Z,7.45
2019-02-28T07:54:31.396Z,7.60
2019-02-28T07:59:33.645Z,7.58
2019-02-28T08:04:35.926Z,7.62
2019-02-28T08:09:40.606Z,7.64
2019-02-28T08:14:43.653Z,7.86
2019-02-28T08:19:47.524Z,7.88
2019-02-28T08:24:49.686Z,7.97
2019-02-28T08:29:51.935Z,8.07
2019-02-28T08:34:55.601Z,7.96
2019-02-28T08:39:58.114Z,8.13
2019-02-28T08:45:00.484Z,8.38
2019-02-28T08:50:03.676Z,8.40
2019-02-28T08:55:09.244Z,8.56
2019-02-28T09:00:13.800Z,8.96
2019-02-28T09:05:15.958Z,9.27
2019-02-28T09:10:18.361Z,9.34
2019-02-28T09:15:20.799Z,9.65
2019-02-28T09:20:22.817Z,9.69
2019-02-28T09:25:27.188Z,9.71
2019-02-28T09:30:36.357Z,10.29
2019-02-28T09:35:45.280Z,10.63
2019-02-28T09:40:49.556Z,10.92
2019-02-28T09:45:51.609Z,10.60
2019-02-28T09:50:59.174Z,10.30
2019-02-28T09:56:01.418Z,10.64
2019-02-28T10:01:06.768Z,10.60
2019-02-28T10:06:09.119Z,10.81
2019-02-28T10:11:15.476Z,10.55
2019-02-28T10:16:21.923Z,10.48
2019-02-28T10:21:25.353Z,10.52
2019-02-28T10:26:27.829Z,10.89
2019-02-28T10:31:36.179Z,10.82
2019-02-28T10:36:52.220Z,11.04
2019-02-28T10:41:56.881Z,11.47
2019-02-28T10:47:04.287Z,11.50
2019-02-28T10:52:08.417Z,11.64
2019-02-28T10:57:10.754Z,11.64
2019-02-28T11:02:18.932Z,11.39
2019-02-28T11:07:19.309Z,11.44
2019-02-28T11:12:23.741Z,11.48
2019-02-28T11:17:25.917Z,11.48
2019-02-28T11:22:28.046Z,11.96
2019-02-28T11:27:30.363Z,11.99
2019-02-28T11:32:32.573Z,12.05
2019-02-28T11:37:35.557Z,12.14
2019-02-28T11:42:37.824Z,12.20
2019-02-28T11:47:42.628Z,12.19
2019-02-28T11:52:43.989Z,12.23
2019-02-28T11:57:46.101Z,12.13
2019-02-28T12:02:53.385Z,12.26
2019-02-28T12:07:52.689Z,12.26
2019-02-28T12:12:56.376Z,12.07
2019-02-28T12:18:03.597Z,12.35
2019-02-28T12:23:02.661Z,12.56
2019-02-28T12:28:06.637Z,12.56
2019-02-28T12:33:09.282Z,13.10
2019-02-28T12:38:11.408Z,13.38
2019-02-28T12:43:13.641Z,12.72
2019-02-28T12:48:16.083Z,12.19
2019-02-28T12:53:24.331Z,12.19
2019-02-28T12:58:22.771Z,11.93
2019-02-28T13:03:25.573Z,12.05
2019-02-28T13:08:27.703Z,11.86
2019-02-28T13:13:30.125Z,11.92
2019-02-28T13:18:32.288Z,11.98
2019-02-28T13:23:34.593Z,11.75
2019-02-28T13:28:38.903Z,11.77
2019-02-28T13:33:48.619Z,11.66
2019-02-28T13:38:49.501Z,11.63
2019-02-28T13:43:54.758Z,11.63
2019-02-28T13:48:58.111Z,11.99
2019-02-28T13:54:03.134Z,11.77
2019-02-28T13:59:05.480Z,11.88
2019-02-28T14:04:13.889Z,11.72
2019-02-28T14:09:18.916Z,11.69
2019-02-28T14:14:22.174Z,11.95
2019-02-28T14:19:26.610Z,12.28
2019-02-28T14:24:30.953Z,12.30
2019-02-28T14:29:35.102Z,12.10
2019-02-28T14:34:37.320Z,11.99
2019-02-28T14:39:43.604Z,12.57
2019-02-28T14:44:49.445Z,12.57
2019-02-28T14:49:53.885Z,12.98
2019-02-28T14:54:58.305Z,12.58
2019-02-28T15:00:06.540Z,12.58
2019-02-28T15:05:16.693Z,12.61
2019-02-28T15:10:21.840Z,12.74
2019-02-28T15:15:24.247Z,12.54
2019-02-28T15:20:31.789Z,12.54
2019-02-28T15:25:31.536Z,12.44
2019-02-28T15:30:34.985Z,12.48
2019-02-28T15:35:37.266Z,12.33
2019-02-28T15:40:44.301Z,12.30
2019-02-28T15:45:46.557Z,12.07
2019-02-28T15:50:51.687Z,12.18
2019-02-28T15:55:56.916Z,12.22
2019-02-28T16:01:01.373Z,12.15
2019-02-28T16:06:03.636Z,12.13
2019-02-28T16:11:06.262Z,12.01
2019-02-28T16:16:09.499Z,11.94
2019-02-28T16:21:11.562Z,11.94
2019-02-28T16:26:18.234Z,11.93
2019-02-28T16:31:23.212Z,11.80
2019-02-28T16:36:29.197Z,11.80
2019-02-28T16:41:33.703Z,11.83
2019-02-28T16:46:38.107Z,11.72
2019-02-28T16:51:40.259Z,11.72
2019-02-28T16:56:42.524Z,11.52
2019-02-28T17:01:48.268Z,11.49
2019-02-28T17:06:53.027Z,11.32
2019-02-28T17:12:15.340Z,11.32
2019-02-28T17:17:23.826Z,11.32
2019-02-28T17:22:27.120Z,11.07
2019-02-28T17:27:53.912Z,11.10
2019-02-28T17:33:01.433Z,11.19
2019-02-28T17:38:03.800Z,11.02
2019-02-28T17:43:06.039Z,11.08
2019-02-28T17:48:31.223Z,11.21
2019-02-28T17:54:21.053Z,11.00
2019-02-28T17:59:48.131Z,10.90
2019-02-28T18:05:29.843Z,10.90
2019-02-28T18:11:16.546Z,10.93
2019-02-28T18:16:49.274Z,10.95
2019-02-28T18:22:19.014Z,10.81
2019-02-28T18:27:53.949Z,10.62
2019-02-28T18:33:00.006Z,10.57
2019-02-28T18:38:05.792Z,10.67
2019-02-28T18:43:11.820Z,10.72
2019-02-28T18:48:17.973Z,10.73
2019-02-28T18:53:25.555Z,10.50
2019-02-28T18:58:27.615Z,10.42
2019-02-28T19:03:29.748Z,10.39
2019-02-28T19:08:35.098Z,10.30
2019-02-28T19:13:39.162Z,10.23
2019-02-28T19:18:41.203Z,10.24
2019-02-28T19:23:43.784Z,10.33
2019-02-28T19:28:45.956Z,10.13
2019-02-28T19:33:48.455Z,10.27
2019-02-28T19:38:50.493Z,10.17
2019-02-28T19:43:56.553Z,10.21
2019-02-28T19:48:58.649Z,10.19
2019-02-28T19:54:02.189Z,10.35
2019-02-28T19:59:11.656Z,10.27
2019-02-28T20:04:15.392Z,10.26
2019-02-28T20:09:26.488Z,10.26
2019-02-28T20:14:29.058Z,10.24
2019-02-28T20:19:34.027Z,10.25
2019-02-28T20:24:37.905Z,10.24
2019-02-28T20:29:44.788Z,10.27
2019-02-28T20:34:49.006Z,10.29
2019-02-28T20:39:51.326Z,10.19
2019-02-28T20:44:53.654Z,10.30
2019-02-28T20:49:57.887Z,10.41
2019-02-28T20:55:00.383Z,10.19
2019-02-28T21:00:02.649Z,10.20
2019-02-28T21:05:09.520Z,10.06
2019-02-28T21:10:11.673Z,10.17
2019-02-28T21:15:18.285Z,10.15
2019-02-28T21:20:25.816Z,10.17
2019-02-28T21:25:30.019Z,10.39
2019-02-28T21:30:33.988Z,10.18
2019-02-28T21:35:36.289Z,10.15
2019-02-28T21:40:44.009Z,10.18
2019-02-28T21:45:47.260Z,10.15
2019-02-28T21:50:49.359Z,10.14
2019-02-28T21:55:55.777Z,10.26
2019-02-28T22:00:57.838Z,10.05
2019-02-28T22:06:01.765Z,10.03
2019-02-28T22:11:03.816Z,10.03
2019-02-28T22:16:11.590Z,10.04
2019-02-28T22:21:13.619Z,10.24
2019-02-28T22:26:16.674Z,10.09
2019-02-28T22:31:43.228Z,10.02
2019-02-28T22:36:49.971Z,10.02
2019-02-28T22:41:52.036Z,9.95
2019-02-28T22:46:57.132Z,9.96
2019-02-28T22:52:02.047Z,9.98
2019-02-28T22:57:04.380Z,10.09
2019-02-28T23:02:06.749Z,9.87
2019-02-28T23:07:14.039Z,9.90
2019-02-28T23:12:16.118Z,9.92
2019-02-28T23:17:18.246Z,9.87
2019-02-28T23:22:20.319Z,9.91
2019-02-28T23:27:24.196Z,9.94
2019-02-28T23:32:43.736Z,9.79
2019-02-28T23:37:48.811Z,9.88
2019-02-28T23:42:50.867Z,9.91
2019-02-28T23:47:58.808Z,9.90
2019-02-28T23:53:00.983Z,9.77
2019-02-28T23:58:03.181Z,9.80
